sensor_id;sensor_type;location;lat;lon;timestamp;pressure;altitude;pressure_sealevel;temperature;humidity
71903;BME280;59778;50.310;18.780;2023-04-24T00:01:17;97820.94;;;12.02;81.23
71903;BME280;59778;50.310;18.780;2023-04-24T00:16:40;97810.88;;;12.21;77.97
71903;BME280;59778;50.310;18.780;2023-04-24T00:32:01;97791.22;;;12.49;74.43
71903;BME280;59778;50.310;18.780;2023-04-24T00:47:24;97785.88;;;12.72;69.71
71903;BME280;59778;50.310;18.780;2023-04-24T01:02:46;97777.81;;;12.77;67.81
71903;BME280;59778;50.310;18.780;2023-04-24T01:18:08;97758.19;;;12.98;64.55
71903;BME280;59778;50.310;18.780;2023-04-24T01:33:29;97738.97;;;13.05;62.71
71903;BME280;59778;50.310;18.780;2023-04-24T01:48:51;97736.13;;;13.00;60.73
71903;BME280;59778;50.310;18.780;2023-04-24T02:04:13;97734.56;;;12.69;63.76
71903;BME280;59778;50.310;18.780;2023-04-24T02:19:35;97718.81;;;12.71;62.80
71903;BME280;59778;50.310;18.780;2023-04-24T02:34:57;97714.75;;;12.62;61.02
71903;BME280;59778;50.310;18.780;2023-04-24T02:50:18;97706.72;;;12.67;61.29
71903;BME280;59778;50.310;18.780;2023-04-24T03:05:39;97698.78;;;12.65;60.55
71903;BME280;59778;50.310;18.780;2023-04-24T03:21:02;97706.72;;;12.67;60.42
71903;BME280;59778;50.310;18.780;2023-04-24T03:36:24;97706.25;;;12.70;59.15
71903;BME280;59778;50.310;18.780;2023-04-24T03:51:47;97696.78;;;12.72;61.04
71903;BME280;59778;50.310;18.780;2023-04-24T04:07:08;97702.22;;;12.84;61.79
71903;BME280;59778;50.310;18.780;2023-04-24T04:22:30;97697.59;;;12.73;59.29
71903;BME280;59778;50.310;18.780;2023-04-24T04:37:51;97695.88;;;13.13;59.83
71903;BME280;59778;50.310;18.780;2023-04-24T04:53:12;97698.66;;;13.65;56.41
71903;BME280;59778;50.310;18.780;2023-04-24T05:08:33;97702.94;;;14.01;54.58
71903;BME280;59778;50.310;18.780;2023-04-24T05:23:55;97695.72;;;14.51;55.75
71903;BME280;59778;50.310;18.780;2023-04-24T05:39:16;97689.78;;;14.88;50.14
71903;BME280;59778;50.310;18.780;2023-04-24T05:54:38;97685.66;;;15.40;48.45
71903;BME280;59778;50.310;18.780;2023-04-24T06:09:59;97686.59;;;15.68;47.27
71903;BME280;59778;50.310;18.780;2023-04-24T06:25:20;97676.81;;;16.47;45.39
71903;BME280;59778;50.310;18.780;2023-04-24T06:40:42;97658.25;;;17.28;43.49
71903;BME280;59778;50.310;18.780;2023-04-24T06:56:03;97661.38;;;18.04;39.62
71903;BME280;59778;50.310;18.780;2023-04-24T07:11:25;97645.25;;;18.48;38.97
71903;BME280;59778;50.310;18.780;2023-04-24T07:26:50;97635.09;;;18.89;35.78
71903;BME280;59778;50.310;18.780;2023-04-24T07:42:12;97646.38;;;19.17;35.64
71903;BME280;59778;50.310;18.780;2023-04-24T07:57:34;97632.16;;;19.85;35.45
71903;BME280;59778;50.310;18.780;2023-04-24T08:12:55;97625.09;;;20.17;34.11
71903;BME280;59778;50.310;18.780;2023-04-24T08:28:17;97617.25;;;20.40;36.12
71903;BME280;59778;50.310;18.780;2023-04-24T08:43:41;97612.31;;;20.70;36.31
71903;BME280;59778;50.310;18.780;2023-04-24T08:59:04;97594.31;;;20.78;33.11
71903;BME280;59778;50.310;18.780;2023-04-24T09:14:26;97594.56;;;20.82;35.70
71903;BME280;59778;50.310;18.780;2023-04-24T09:29:57;97584.16;;;20.74;34.06
71903;BME280;59778;50.310;18.780;2023-04-24T09:45:18;97579.16;;;20.76;34.23
71903;BME280;59778;50.310;18.780;2023-04-24T10:00:40;97572.09;;;20.64;36.47
71903;BME280;59778;50.310;18.780;2023-04-24T10:16:02;97561.28;;;21.49;35.76
71903;BME280;59778;50.310;18.780;2023-04-24T10:31:25;97568.84;;;20.57;35.82
71903;BME280;59778;50.310;18.780;2023-04-24T10:46:46;97567.94;;;19.84;36.70
71903;BME280;59778;50.310;18.780;2023-04-24T11:02:17;97575.38;;;19.14;39.85
71903;BME280;59778;50.310;18.780;2023-04-24T11:17:42;97587.56;;;18.68;41.75
71903;BME280;59778;50.310;18.780;2023-04-24T11:33:04;97581.47;;;18.61;43.15
71903;BME280;59778;50.310;18.780;2023-04-24T11:48:26;97584.75;;;18.43;43.69
71903;BME280;59778;50.310;18.780;2023-04-24T12:03:48;97588.31;;;18.13;45.24
71903;BME280;59778;50.310;18.780;2023-04-24T12:19:11;97584.56;;;17.57;47.93
71903;BME280;59778;50.310;18.780;2023-04-24T12:34:33;97577.47;;;17.61;49.43
71903;BME280;59778;50.310;18.780;2023-04-24T12:49:54;97576.13;;;17.73;50.12
71903;BME280;59778;50.310;18.780;2023-04-24T13:05:16;97581.25;;;17.55;50.96
71903;BME280;59778;50.310;18.780;2023-04-24T13:20:38;97568.19;;;17.20;52.56
71903;BME280;59778;50.310;18.780;2023-04-24T13:35:59;97550.25;;;16.97;54.22
71903;BME280;59778;50.310;18.780;2023-04-24T13:51:21;97529.78;;;16.36;56.19
71903;BME280;59778;50.310;18.780;2023-04-24T14:06:43;97540.69;;;16.26;58.72
71903;BME280;59778;50.310;18.780;2023-04-24T14:22:05;97550.44;;;16.12;61.13
71903;BME280;59778;50.310;18.780;2023-04-24T14:37:26;97538.19;;;16.24;63.32
71903;BME280;59778;50.310;18.780;2023-04-24T14:52:48;97539.69;;;15.51;63.87
71903;BME280;59778;50.310;18.780;2023-04-24T15:08:09;97545.28;;;15.40;64.66
71903;BME280;59778;50.310;18.780;2023-04-24T15:23:30;97543.19;;;15.03;64.32
71903;BME280;59778;50.310;18.780;2023-04-24T15:38:52;97546.59;;;14.94;66.48
71903;BME280;59778;50.310;18.780;2023-04-24T15:54:14;97553.84;;;14.67;67.34
71903;BME280;59778;50.310;18.780;2023-04-24T16:09:35;97567.53;;;14.33;70.29
71903;BME280;59778;50.310;18.780;2023-04-24T16:24:56;97561.38;;;14.26;72.11
71903;BME280;59778;50.310;18.780;2023-04-24T16:40:19;97561.97;;;14.11;75.15
71903;BME280;59778;50.310;18.780;2023-04-24T16:55:40;97553.41;;;13.91;76.68
71903;BME280;59778;50.310;18.780;2023-04-24T17:11:02;97547.72;;;13.93;78.07
71903;BME280;59778;50.310;18.780;2023-04-24T17:26:23;97561.97;;;14.11;76.60
71903;BME280;59778;50.310;18.780;2023-04-24T17:41:45;97559.16;;;13.90;79.71
71903;BME280;59778;50.310;18.780;2023-04-24T17:57:06;97570.41;;;13.65;79.39
71903;BME280;59778;50.310;18.780;2023-04-24T18:12:27;97594.19;;;13.53;81.30
71903;BME280;59778;50.310;18.780;2023-04-24T18:27:49;97606.56;;;13.32;83.50
71903;BME280;59778;50.310;18.780;2023-04-24T18:43:10;97617.50;;;13.20;85.52
71903;BME280;59778;50.310;18.780;2023-04-24T18:58:32;97629.59;;;13.01;91.67
71903;BME280;59778;50.310;18.780;2023-04-24T19:13:54;97639.47;;;12.67;99.88
71903;BME280;59778;50.310;18.780;2023-04-24T19:29:17;97632.91;;;12.45;100.00
71903;BME280;59778;50.310;18.780;2023-04-24T19:44:38;97616.91;;;12.25;100.00
71903;BME280;59778;50.310;18.780;2023-04-24T20:00:00;97635.59;;;12.22;100.00
71903;BME280;59778;50.310;18.780;2023-04-24T20:15:21;97628.75;;;11.90;100.00
71903;BME280;59778;50.310;18.780;2023-04-24T20:30:43;97643.16;;;12.08;100.00
71903;BME280;59778;50.310;18.780;2023-04-24T20:46:05;97654.72;;;11.56;100.00
71903;BME280;59778;50.310;18.780;2023-04-24T21:01:27;97661.53;;;11.28;100.00
71903;BME280;59778;50.310;18.780;2023-04-24T21:16:50;97677.03;;;11.10;100.00
71903;BME280;59778;50.310;18.780;2023-04-24T21:32:11;97678.44;;;10.94;100.00
71903;BME280;59778;50.310;18.780;2023-04-24T21:47:32;97683.78;;;11.01;100.00
71903;BME280;59778;50.310;18.780;2023-04-24T22:02:54;97678.00;;;10.97;100.00
71903;BME280;59778;50.310;18.780;2023-04-24T22:18:15;97685.91;;;10.99;100.00
71903;BME280;59778;50.310;18.780;2023-04-24T22:33:38;97686.59;;;10.94;100.00
71903;BME280;59778;50.310;18.780;2023-04-24T22:49:00;97699.56;;;11.10;100.00
71903;BME280;59778;50.310;18.780;2023-04-24T23:04:22;97689.31;;;11.12;100.00
71903;BME280;59778;50.310;18.780;2023-04-24T23:19:44;97674.31;;;11.10;100.00
71903;BME280;59778;50.310;18.780;2023-04-24T23:35:06;97680.13;;;11.31;100.00
71903;BME280;59778;50.310;18.780;2023-04-24T23:50:28;97680.41;;;11.05;100.00
